Time;durP1;ratioP1;P1;durP2;ratioP2;P2;SDS_P1;SDS_P2;PMS_P1;PMS_P2;Temp;Humidity;BMP_temperature;BMP_pressure;BME280_temperature;BME280_humidity;BME280_pressure;Samples;Min_cycle;Max_cycle;Signal;HPM_P1;HPM_P2
2024/03/08 00:02:46;;;;;;;35.42;24.38;;;;;;;2.71;100.00;101763.81;10540398;28;20201;-68
2024/03/08 00:07:47;;;;;;;47.03;27.70;;;;;;;2.73;100.00;101780.59;10540731;28;20032;-70
2024/03/08 00:12:47;;;;;;;61.72;25.80;;;;;;;2.70;100.00;101775.50;10521387;28;20044;-68
2024/03/08 00:17:47;;;;;;;23.65;20.42;;;;;;;2.70;100.00;101762.13;10521518;28;20142;-69
2024/03/08 00:22:48;;;;;;;28.65;20.05;;;;;;;2.67;100.00;101763.22;10540206;28;20067;-69
2024/03/08 00:27:49;;;;;;;44.60;27.27;;;;;;;2.69;100.00;101761.28;10520919;28;20067;-68
2024/03/08 00:32:49;;;;;;;42.55;24.77;;;;;;;2.62;100.00;101754.75;10539950;28;20035;-69
2024/03/08 00:37:50;;;;;;;38.15;26.45;;;;;;;2.63;100.00;101747.56;10538596;28;20083;-69
2024/03/08 00:42:50;;;;;;;42.88;25.63;;;;;;;2.64;100.00;101749.25;10539880;28;20032;-68
2024/03/08 00:47:51;;;;;;;32.95;23.58;;;;;;;2.62;100.00;101744.03;10539046;28;20073;-68
2024/03/08 00:52:51;;;;;;;50.20;24.27;;;;;;;2.61;100.00;101738.81;10520866;28;20116;-69
2024/03/08 00:57:53;;;;;;;42.65;26.52;;;;;;;2.54;100.00;101743.81;10538650;28;20514;-68
2024/03/08 01:02:53;;;;;;;27.20;18.55;;;;;;;2.52;100.00;101721.69;10540904;28;20502;-68
2024/03/08 01:07:54;;;;;;;40.90;27.13;;;;;;;2.49;100.00;101722.81;10538264;28;20068;-70
2024/03/08 01:12:56;;;;;;;34.25;22.98;;;;;;;2.47;100.00;101716.72;10538830;28;20113;-69
2024/03/08 01:17:57;;;;;;;43.25;23.60;;;;;;;2.41;100.00;101711.03;10538527;28;20036;-68
2024/03/08 01:22:57;;;;;;;36.92;25.58;;;;;;;2.38;100.00;101703.25;10537857;28;20103;-68
2024/03/08 01:27:57;;;;;;;35.28;24.80;;;;;;;2.36;100.00;101692.69;10538008;28;20101;-69
2024/03/08 01:32:58;;;;;;;26.25;21.15;;;;;;;2.31;100.00;101678.84;10538048;28;20100;-69
2024/03/08 01:37:59;;;;;;;39.47;23.30;;;;;;;2.28;100.00;101682.63;10518589;28;20038;-68
2024/03/08 01:43:18;;;;;;;41.00;23.95;;;;;;;2.23;100.00;101667.91;10536758;28;20614;-68
2024/03/08 01:48:19;;;;;;;40.97;24.85;;;;;;;2.19;100.00;101669.16;10519582;28;20456;-67
2024/03/08 01:53:19;;;;;;;35.22;21.25;;;;;;;2.15;100.00;101673.06;10518051;28;20038;-69
2024/03/08 01:58:21;;;;;;;37.47;22.08;;;;;;;2.15;100.00;101670.38;10535533;28;20040;-67
2024/03/08 02:03:22;;;;;;;35.10;24.92;;;;;;;2.07;100.00;101662.97;10502241;28;20044;-69
2024/03/08 02:08:22;;;;;;;34.88;26.27;;;;;;;2.05;100.00;101662.25;10517473;28;20028;-69
2024/03/08 02:13:23;;;;;;;37.63;24.95;;;;;;;1.99;100.00;101655.59;10517704;28;20046;-69
2024/03/08 02:18:23;;;;;;;41.28;24.50;;;;;;;2.02;100.00;101644.66;10517432;28;20123;-68
2024/03/08 02:23:27;;;;;;;39.38;28.13;;;;;;;1.96;100.00;101638.97;10535515;28;20028;-69
2024/03/08 02:28:28;;;;;;;40.33;25.60;;;;;;;1.87;100.00;101637.88;10517508;28;20448;-69
2024/03/08 02:33:29;;;;;;;26.25;21.77;;;;;;;1.89;100.00;101624.41;10536457;28;20039;-68
2024/03/08 02:38:29;;;;;;;33.00;23.55;;;;;;;1.82;100.00;101614.22;10534729;28;20391;-68
2024/03/08 02:43:30;;;;;;;41.65;30.58;;;;;;;1.74;100.00;101611.28;10534741;28;20138;-69
2024/03/08 02:48:30;;;;;;;29.95;22.48;;;;;;;1.68;100.00;101610.94;10516246;28;20072;-68
2024/03/08 02:53:31;;;;;;;39.03;25.98;;;;;;;1.70;100.00;101606.34;10534100;28;20075;-67
2024/03/08 02:58:31;;;;;;;34.92;19.70;;;;;;;1.56;100.00;101594.94;10533640;28;20495;-68
2024/03/08 03:03:33;;;;;;;37.17;24.55;;;;;;;1.60;100.00;101585.72;10516048;28;20124;-69
2024/03/08 03:08:33;;;;;;;23.38;20.98;;;;;;;1.55;100.00;101579.03;10533254;28;20466;-68
2024/03/08 03:13:34;;;;;;;37.22;25.77;;;;;;;1.59;100.00;101575.13;10534348;28;20056;-69
2024/03/08 03:18:34;;;;;;;42.55;25.85;;;;;;;1.47;100.00;101566.31;10533595;28;20036;-68
2024/03/08 03:23:34;;;;;;;33.33;23.55;;;;;;;1.53;100.00;101565.81;10515562;28;20066;-69
2024/03/08 03:28:37;;;;;;;34.67;22.45;;;;;;;1.45;100.00;101546.91;10533901;28;20090;-69
2024/03/08 03:33:37;;;;;;;34.72;25.73;;;;;;;1.43;100.00;101556.81;10533552;28;20043;-69
2024/03/08 03:38:38;;;;;;;36.08;24.42;;;;;;;1.37;100.00;101541.31;10532893;28;20039;-69
2024/03/08 03:43:38;;;;;;;43.17;26.10;;;;;;;1.43;100.00;101547.97;10533196;28;20060;-69
2024/03/08 03:48:39;;;;;;;44.47;29.85;;;;;;;1.38;100.00;101545.69;10532286;28;20394;-69
2024/03/08 03:53:39;;;;;;;35.80;21.77;;;;;;;1.27;100.00;101548.34;10514648;28;20044;-68
2024/03/08 03:58:40;;;;;;;31.60;24.70;;;;;;;1.20;100.00;101541.81;10532749;28;20080;-68
2024/03/08 04:03:42;;;;;;;36.65;26.83;;;;;;;1.20;100.00;101539.97;10535983;28;20147;-68
2024/03/08 04:08:43;;;;;;;38.88;26.48;;;;;;;1.12;100.00;101539.75;10521632;28;20032;-69
2024/03/08 04:13:43;;;;;;;38.67;27.17;;;;;;;1.12;100.00;101521.94;10539650;28;20538;-69
2024/03/08 04:18:44;;;;;;;44.90;27.13;;;;;;;1.04;100.00;101519.00;10521668;28;20071;-68
2024/03/08 04:23:45;;;;;;;33.65;25.83;;;;;;;1.10;100.00;101515.84;10540006;28;20059;-69
2024/03/08 04:28:46;;;;;;;45.72;22.17;;;;;;;1.03;100.00;101508.47;10540419;28;20032;-68
2024/03/08 04:33:46;;;;;;;39.33;24.77;;;;;;;1.03;100.00;101514.66;10539296;28;20036;-68
2024/03/08 04:38:47;;;;;;;33.35;22.70;;;;;;;1.00;100.00;101509.56;10521072;28;20063;-70
2024/03/08 04:43:47;;;;;;;34.10;25.60;;;;;;;0.98;100.00;101514.13;10539161;28;20123;-69
2024/03/08 04:48:48;;;;;;;22.30;16.15;;;;;;;0.93;100.00;101508.34;10539328;28;20107;-68
2024/03/08 04:53:48;;;;;;;28.65;19.35;;;;;;;0.89;100.00;101505.06;10521728;28;20458;-68
2024/03/08 04:58:49;;;;;;;26.83;18.70;;;;;;;0.82;100.00;101486.97;10521357;28;20483;-69
2024/03/08 05:03:50;;;;;;;35.30;26.55;;;;;;;0.81;100.00;101511.97;10538575;28;20070;-69
2024/03/08 05:08:50;;;;;;;31.73;26.27;;;;;;;0.85;100.00;101489.41;10519761;28;20050;-69
2024/03/08 05:13:51;;;;;;;36.65;22.70;;;;;;;0.79;100.00;101487.22;10537961;28;20076;-69
2024/03/08 05:18:51;;;;;;;44.20;28.33;;;;;;;0.82;100.00;101485.16;10538073;28;20031;-70
2024/03/08 05:23:51;;;;;;;38.15;25.23;;;;;;;0.74;100.00;101476.09;10520502;28;20491;-68
2024/03/08 05:28:52;;;;;;;34.55;25.35;;;;;;;0.72;100.00;101470.00;10536865;28;20067;-68
2024/03/08 05:33:54;;;;;;;49.60;33.75;;;;;;;0.74;100.00;101478.75;10447775;28;20121;-68
2024/03/08 05:38:54;;;;;;;32.60;25.95;;;;;;;0.62;100.00;101460.06;10536295;28;20588;-69
2024/03/08 05:43:54;;;;;;;44.58;27.25;;;;;;;0.67;100.00;101473.03;10518718;28;20051;-69
2024/03/08 05:48:55;;;;;;;39.03;26.80;;;;;;;0.67;100.00;101465.91;10536585;28;20467;-68
2024/03/08 05:53:56;;;;;;;32.67;23.20;;;;;;;0.59;100.00;101454.97;10536151;28;20067;-67
2024/03/08 05:58:58;;;;;;;32.35;27.60;;;;;;;0.60;100.00;101453.16;10535103;28;20063;-67
2024/03/08 06:03:58;;;;;;;55.88;27.85;;;;;;;0.67;100.00;101459.69;10535297;28;20056;-69
2024/03/08 06:08:59;;;;;;;38.20;25.35;;;;;;;0.62;100.00;101460.06;10463420;28;20124;-68
2024/03/08 06:13:59;;;;;;;38.83;29.33;;;;;;;0.61;100.00;101449.53;10517094;28;20116;-68
2024/03/08 06:19:01;;;;;;;38.30;26.75;;;;;;;0.63;100.00;101444.91;10517379;28;20040;-71
2024/03/08 06:24:02;;;;;;;31.35;22.65;;;;;;;0.67;100.00;101447.25;10534670;28;20048;-68
2024/03/08 06:29:03;;;;;;;26.75;19.85;;;;;;;0.78;100.00;101442.88;10534771;28;20028;-69
2024/03/08 06:34:03;;;;;;;31.95;22.90;;;;;;;0.89;100.00;101432.19;10534672;28;20070;-69
2024/03/08 06:39:08;;;;;;;25.65;19.63;;;;;;;1.00;100.00;101428.69;10499130;28;20058;-70
2024/03/08 06:44:09;;;;;;;47.10;25.27;;;;;;;1.25;100.00;101427.59;10534888;28;20112;-68
2024/03/08 06:49:11;;;;;;;39.47;30.35;;;;;;;1.50;100.00;101421.94;10533552;28;20103;-69
2024/03/08 06:54:11;;;;;;;32.05;23.05;;;;;;;1.94;100.00;101413.88;10533920;28;20459;-68
2024/03/08 06:59:11;;;;;;;39.70;29.13;;;;;;;2.27;100.00;101394.16;10533270;28;20075;-70
2024/03/08 07:04:12;;;;;;;36.75;22.83;;;;;;;2.75;100.00;101405.09;10515618;28;20040;-69
2024/03/08 07:09:13;;;;;;;38.60;25.63;;;;;;;3.01;100.00;101393.91;10533686;28;20121;-69
2024/03/08 07:14:15;;;;;;;25.85;20.02;;;;;;;3.42;100.00;101392.88;10534730;28;20043;-69
2024/03/08 07:19:16;;;;;;;25.20;20.75;;;;;;;3.78;100.00;101397.69;10515450;28;20085;-69
2024/03/08 07:29:17;;;;;;;24.85;19.23;;;;;;;3.93;100.00;101383.72;10533546;28;20119;-69
2024/03/08 07:34:17;;;;;;;30.75;21.77;;;;;;;4.17;100.00;101383.25;10533793;28;20059;-69
2024/03/08 07:39:18;;;;;;;27.23;22.13;;;;;;;4.46;100.00;101402.94;10540390;28;20028;-69
2024/03/08 07:44:19;;;;;;;24.83;19.60;;;;;;;4.60;100.00;101397.97;10542364;28;20063;-69
2024/03/08 07:49:19;;;;;;;36.00;22.25;;;;;;;4.84;100.00;101377.81;10507038;28;20032;-69
2024/03/08 07:54:20;;;;;;;21.35;19.10;;;;;;;5.02;100.00;101383.25;10541584;28;20246;-69
2024/03/08 07:59:20;;;;;;;26.23;21.05;;;;;;;5.22;100.00;101382.13;10522576;28;20138;-69
2024/03/08 08:04:24;;;;;;;32.05;23.10;;;;;;;5.46;100.00;101388.78;10540525;28;20424;-68
2024/03/08 08:09:34;;;;;;;36.42;22.88;;;;;;;5.67;100.00;101369.66;10541111;28;20067;-70
2024/03/08 08:14:34;;;;;;;23.85;18.15;;;;;;;5.99;100.00;101380.72;10541223;28;20123;-70
2024/03/08 08:19:38;;;;;;;39.28;21.13;;;;;;;6.03;100.00;101363.28;10540753;28;20119;-69
2024/03/08 08:24:40;;;;;;;20.52;16.85;;;;;;;6.35;100.00;101344.81;10541701;28;20468;-71
2024/03/08 08:29:40;;;;;;;27.45;18.35;;;;;;;6.55;100.00;101334.69;10522086;28;20032;-68
2024/03/08 08:34:42;;;;;;;31.65;22.88;;;;;;;6.39;99.89;101343.53;10539519;28;20052;-71
2024/03/08 08:39:42;;;;;;;24.38;19.10;;;;;;;6.47;96.98;101327.41;10521268;28;20418;-69
2024/03/08 08:44:43;;;;;;;32.97;20.67;;;;;;;6.67;97.98;101341.50;10539739;28;20166;-71
2024/03/08 08:49:44;;;;;;;21.00;17.60;;;;;;;6.73;93.42;101317.47;10538009;28;20036;-70
2024/03/08 08:54:44;;;;;;;31.77;20.15;;;;;;;6.98;92.89;101309.44;10538425;28;20032;-68
2024/03/08 08:59:45;;;;;;;20.73;16.67;;;;;;;7.13;91.25;101312.38;10538181;28;20109;-71
2024/03/08 09:04:46;;;;;;;29.60;20.00;;;;;;;7.18;90.89;101310.03;10539506;28;20071;-70
2024/03/08 09:09:46;;;;;;;25.05;17.42;;;;;;;7.58;84.50;101305.69;10537679;28;20119;-69
2024/03/08 09:14:47;;;;;;;28.20;19.77;;;;;;;7.28;88.19;101293.72;10538635;28;20160;-70
2024/03/08 09:19:48;;;;;;;26.30;19.40;;;;;;;7.42;88.28;101291.19;10537592;28;20038;-69
2024/03/08 09:24:48;;;;;;;24.58;18.95;;;;;;;8.01;85.22;101280.22;10537495;28;20040;-69
2024/03/08 09:29:49;;;;;;;22.83;18.35;;;;;;;8.10;80.27;101278.31;10519650;28;20111;-70
2024/03/08 09:34:50;;;;;;;25.05;17.13;;;;;;;8.09;83.61;101266.69;10519737;28;20095;-70
2024/03/08 09:39:50;;;;;;;26.17;17.27;;;;;;;8.63;79.27;101249.84;10536622;28;20696;-70
2024/03/08 09:44:51;;;;;;;24.02;17.95;;;;;;;8.93;76.05;101245.44;10537565;28;20040;-70
2024/03/08 09:49:52;;;;;;;18.75;15.70;;;;;;;8.84;74.36;101223.06;10502207;28;20135;-69
2024/03/08 09:54:53;;;;;;;19.50;15.07;;;;;;;9.11;75.16;101217.31;10519115;28;20036;-69
2024/03/08 09:59:53;;;;;;;25.92;18.23;;;;;;;9.17;72.47;101217.44;10517612;28;20060;-68
2024/03/08 10:04:54;;;;;;;21.13;17.35;;;;;;;9.27;72.03;101192.88;10537059;28;20036;-69
2024/03/08 10:09:54;;;;;;;18.60;14.25;;;;;;;9.71;69.97;101184.84;10501375;28;20040;-70
2024/03/08 10:14:56;;;;;;;17.73;15.98;;;;;;;10.09;69.65;101189.34;10537370;28;20135;-68
2024/03/08 10:19:58;;;;;;;20.13;16.17;;;;;;;9.60;68.65;101177.19;10536027;28;20077;-69
2024/03/08 10:25:00;;;;;;;21.00;17.55;;;;;;;10.15;66.40;101154.25;10518685;28;20538;-68
2024/03/08 10:30:01;;;;;;;28.52;19.40;;;;;;;10.08;65.95;101145.19;10500908;28;20077;-70
2024/03/08 10:35:01;;;;;;;24.02;16.88;;;;;;;10.52;67.67;101128.06;10517053;28;20122;-70
2024/03/08 10:40:15;;;;;;;18.90;14.98;;;;;;;10.80;63.13;101130.03;10516464;28;20490;-69
2024/03/08 10:45:21;;;;;;;20.60;15.88;;;;;;;10.65;63.12;101124.66;10534786;28;20032;-70
2024/03/08 10:50:21;;;;;;;20.73;15.77;;;;;;;10.74;63.17;101096.41;10517307;28;20068;-68
2024/03/08 10:55:22;;;;;;;22.80;15.73;;;;;;;11.21;61.14;101103.09;10534420;28;20040;-69
2024/03/08 11:00:26;;;;;;;17.63;15.15;;;;;;;10.99;59.66;101077.06;10516071;28;20120;-70
2024/03/08 11:05:39;;;;;;;23.80;14.93;;;;;;;10.89;60.14;101082.81;10517489;28;20456;-69
2024/03/08 11:10:55;;;;;;;18.40;15.90;;;;;;;11.26;58.51;101110.63;10534867;28;20061;-68
2024/03/08 11:15:56;;;;;;;20.77;16.20;;;;;;;11.14;58.73;101056.13;10535936;28;20105;-68
2024/03/08 11:20:57;;;;;;;23.38;17.15;;;;;;;11.27;58.32;101047.25;10518267;28;20036;-68
2024/03/08 11:25:58;;;;;;;18.70;15.50;;;;;;;11.39;57.47;101032.94;10534228;28;20165;-68
2024/03/08 11:30:58;;;;;;;25.45;19.05;;;;;;;11.29;57.75;101034.31;10516357;28;20515;-69
2024/03/08 11:36:24;;;;;;;19.02;15.27;;;;;;;11.23;57.45;101019.69;10535338;28;20391;-69
2024/03/08 11:41:24;;;;;;;18.85;14.40;;;;;;;11.49;56.54;101023.59;10521445;28;20045;-70
2024/03/08 11:46:28;;;;;;;16.25;14.45;;;;;;;11.72;56.72;101013.28;10515704;28;20491;-70
2024/03/08 11:51:29;;;;;;;21.70;14.48;;;;;;;11.78;56.03;101007.03;10533125;28;20072;-68
2024/03/08 11:56:31;;;;;;;22.48;15.20;;;;;;;11.86;55.53;100998.72;10498980;28;20572;-69
2024/03/08 12:01:32;;;;;;;20.92;16.75;;;;;;;11.60;55.92;100993.19;10532927;28;20083;-70
2024/03/08 12:06:39;;;;;;;15.60;12.57;;;;;;;11.75;56.58;100990.34;10515191;28;20558;-68
2024/03/08 12:11:40;;;;;;;26.77;18.17;;;;;;;11.61;55.73;100987.56;10532907;28;20481;-68
2024/03/08 12:16:42;;;;;;;19.45;14.65;;;;;;;11.57;56.26;100994.41;10532500;28;20223;-70
2024/03/08 12:21:48;;;;;;;19.10;14.90;;;;;;;11.29;57.17;100940.25;10533291;28;20032;-67
2024/03/08 12:26:48;;;;;;;19.63;15.73;;;;;;;11.80;57.56;100949.84;10522306;28;20459;-69
2024/03/08 12:31:53;;;;;;;20.98;16.10;;;;;;;11.71;55.57;100941.09;10540124;28;20107;-67
2024/03/08 12:36:53;;;;;;;21.40;14.38;;;;;;;11.47;57.22;100950.56;10539911;28;20031;-70
2024/03/08 12:41:54;;;;;;;17.75;15.68;;;;;;;11.61;57.21;100929.75;10520894;28;20059;-69
2024/03/08 12:46:54;;;;;;;17.10;13.90;;;;;;;11.38;58.28;100911.09;10522210;28;20061;-67
2024/03/08 12:51:55;;;;;;;17.75;14.77;;;;;;;11.84;57.74;100910.44;10521322;28;20047;-69
2024/03/08 12:56:55;;;;;;;19.75;17.67;;;;;;;11.91;56.59;100933.03;10520865;28;20074;-68
2024/03/08 13:01:58;;;;;;;16.42;13.20;;;;;;;11.55;57.92;100892.59;10537972;28;20201;-68
2024/03/08 13:06:58;;;;;;;13.73;12.27;;;;;;;11.73;57.26;100892.84;10521443;28;20040;-67
2024/03/08 13:12:00;;;;;;;20.42;15.02;;;;;;;11.44;57.00;100876.94;10538280;28;20051;-68
2024/03/08 13:17:01;;;;;;;22.60;14.50;;;;;;;11.44;57.67;100883.19;10520363;28;20063;-70
2024/03/08 13:22:04;;;;;;;16.75;15.00;;;;;;;11.70;57.61;100871.56;10503289;28;20032;-69
2024/03/08 13:27:16;;;;;;;20.40;13.50;;;;;;;11.88;57.11;100881.03;10519846;28;20070;-69
2024/03/08 13:32:17;;;;;;;23.33;13.80;;;;;;;11.69;56.84;100871.78;10521104;28;20035;-69
2024/03/08 13:37:17;;;;;;;18.38;14.70;;;;;;;11.47;56.87;100868.41;10519795;28;20036;-70
2024/03/08 13:42:18;;;;;;;21.05;14.77;;;;;;;11.36;56.76;100851.69;10537526;28;20087;-69
2024/03/08 13:47:19;;;;;;;17.92;14.57;;;;;;;11.51;57.49;100842.53;10502079;28;20036;-69
2024/03/08 13:52:19;;;;;;;25.13;13.88;;;;;;;11.62;57.21;100837.34;10536926;28;20464;-70
2024/03/08 13:57:20;;;;;;;22.83;13.90;;;;;;;11.37;56.11;100815.38;10518825;28;20107;-69
2024/03/08 14:02:22;;;;;;;20.85;14.23;;;;;;;11.46;55.83;100815.22;10536359;28;20048;-68
2024/03/08 14:07:23;;;;;;;16.60;14.02;;;;;;;11.26;56.36;100775.31;10536565;28;20395;-68
2024/03/08 14:12:26;;;;;;;19.20;13.77;;;;;;;11.32;57.83;100784.50;10535179;28;20093;-71
2024/03/08 14:17:27;;;;;;;18.85;16.80;;;;;;;11.01;56.54;100775.06;10535333;28;20036;-70
2024/03/08 14:22:31;;;;;;;17.60;12.55;;;;;;;11.13;58.17;100772.56;10517293;28;20115;-68
2024/03/08 14:27:33;;;;;;;20.98;13.80;;;;;;;11.02;57.55;100759.63;10517932;28;20117;-69
2024/03/08 14:32:33;;;;;;;19.58;14.02;;;;;;;10.88;57.49;100747.88;10516826;28;20160;-69
2024/03/08 14:37:34;;;;;;;21.42;17.52;;;;;;;10.81;57.60;100741.63;10535765;28;20126;-68
2024/03/08 14:42:34;;;;;;;20.50;12.55;;;;;;;10.73;58.47;100731.81;10516603;28;20464;-68
2024/03/08 14:47:35;;;;;;;18.83;14.38;;;;;;;10.88;59.12;100718.94;10534986;28;20071;-68
2024/03/08 14:52:36;;;;;;;17.63;14.82;;;;;;;10.81;58.81;100747.88;10534478;28;20071;-68
2024/03/08 14:57:36;;;;;;;17.60;14.02;;;;;;;10.72;58.46;100708.50;10534236;28;20748;-70
2024/03/08 15:02:39;;;;;;;14.70;12.25;;;;;;;10.64;59.40;100690.53;10533314;28;20639;-69
2024/03/08 15:07:39;;;;;;;14.55;13.00;;;;;;;10.69;59.87;100681.81;10515575;28;20040;-68
2024/03/08 15:12:40;;;;;;;18.30;14.88;;;;;;;10.47;60.19;100683.81;10533448;28;20044;-67
2024/03/08 15:17:40;;;;;;;17.60;13.43;;;;;;;10.24;62.39;100692.19;10515128;28;20036;-68
2024/03/08 15:22:46;;;;;;;26.35;15.35;;;;;;;9.99;62.71;100698.09;10534406;28;20036;-69
2024/03/08 15:27:48;;;;;;;18.13;12.80;;;;;;;9.56;64.15;100678.44;10516360;28;20372;-68
2024/03/08 15:32:50;;;;;;;23.67;17.10;;;;;;;9.27;66.37;100680.28;10534015;28;20032;-69
2024/03/08 15:37:52;;;;;;;19.92;15.13;;;;;;;9.21;68.81;100675.66;10516216;28;20028;-71
2024/03/08 15:42:56;;;;;;;22.65;15.30;;;;;;;9.23;70.09;100675.47;10532482;28;20060;-70
2024/03/08 15:47:56;;;;;;;18.33;14.60;;;;;;;9.17;71.92;100668.16;10533850;28;20060;-68
2024/03/08 15:52:57;;;;;;;22.00;14.30;;;;;;;9.05;72.30;100681.31;10515803;28;20032;-69
2024/03/08 15:57:59;;;;;;;21.45;14.70;;;;;;;8.91;73.47;100658.75;10517200;28;20064;-69
2024/03/08 16:03:02;;;;;;;31.02;17.77;;;;;;;8.86;76.24;100653.09;10541099;28;20139;-71
2024/03/08 16:08:03;;;;;;;26.33;17.35;;;;;;;8.83;76.55;100648.06;10540832;28;20049;-70
2024/03/08 16:13:05;;;;;;;23.80;16.85;;;;;;;8.77;79.26;100643.44;10522244;28;20191;-70
2024/03/08 16:18:06;;;;;;;20.92;17.13;;;;;;;8.73;80.20;100652.97;10540666;28;20032;-69
2024/03/08 16:23:07;;;;;;;19.30;16.33;;;;;;;8.67;80.82;100630.25;10540139;28;20033;-68
2024/03/08 16:28:08;;;;;;;22.48;15.77;;;;;;;8.51;81.12;100627.81;10540906;28;20072;-69
2024/03/08 16:33:08;;;;;;;25.98;16.75;;;;;;;8.53;82.78;100623.91;10540260;28;20028;-68
2024/03/08 16:38:12;;;;;;;18.98;15.05;;;;;;;8.47;82.13;100635.44;10505120;28;20482;-69
2024/03/08 16:43:14;;;;;;;21.55;15.70;;;;;;;8.42;84.07;100613.59;10538739;28;20042;-70
2024/03/08 16:48:16;;;;;;;20.27;16.30;;;;;;;8.37;85.39;100616.00;10521444;28;20039;-68
2024/03/08 16:53:17;;;;;;;24.65;18.10;;;;;;;8.31;88.37;100616.75;10539783;28;20038;-69
2024/03/08 16:58:18;;;;;;;21.67;16.67;;;;;;;8.24;88.64;100621.25;10539446;28;20095;-68
2024/03/08 17:03:19;;;;;;;26.92;18.75;;;;;;;8.09;89.09;100621.25;10521816;28;20185;-68
2024/03/08 17:08:19;;;;;;;28.30;16.75;;;;;;;8.02;90.42;100609.56;10538862;28;20074;-69
2024/03/08 17:13:19;;;;;;;23.45;16.30;;;;;;;7.96;90.82;100616.53;10538289;28;20038;-68
2024/03/08 17:18:20;;;;;;;21.90;15.07;;;;;;;7.87;92.09;100628.44;10537919;28;20078;-69
2024/03/08 17:23:22;;;;;;;19.23;14.15;;;;;;;7.75;93.13;100636.13;10520460;28;20384;-69
2024/03/08 17:28:26;;;;;;;20.02;13.65;;;;;;;7.65;93.63;100612.16;10538288;28;20119;-69
2024/03/08 17:33:31;;;;;;;21.67;18.40;;;;;;;7.54;93.80;100615.34;10537655;28;20051;-70
2024/03/08 17:38:33;;;;;;;23.85;15.70;;;;;;;7.49;96.06;100612.34;10537342;28;20040;-68
2024/03/08 17:43:34;;;;;;;20.58;16.73;;;;;;;7.41;97.62;100609.75;10486376;28;20055;-70
2024/03/08 17:48:34;;;;;;;19.77;15.43;;;;;;;7.33;97.28;100607.13;10540094;28;20432;-68
2024/03/08 17:53:35;;;;;;;22.55;16.60;;;;;;;7.29;97.11;100612.03;10538493;28;20073;-69
2024/03/08 17:58:35;;;;;;;20.45;13.50;;;;;;;7.28;96.60;100612.25;10519806;28;20063;-70
2024/03/08 18:03:36;;;;;;;21.75;16.27;;;;;;;7.27;96.29;100624.00;10519821;28;20079;-70
2024/03/08 18:08:37;;;;;;;24.92;17.80;;;;;;;7.15;97.16;100618.25;10520080;28;20067;-67
2024/03/08 18:13:38;;;;;;;25.42;16.27;;;;;;;7.08;98.58;100626.19;10518373;28;20143;-69
2024/03/08 18:18:38;;;;;;;20.58;15.57;;;;;;;7.05;99.10;100615.81;10536426;28;20135;-70
2024/03/08 18:23:40;;;;;;;28.58;18.52;;;;;;;6.99;99.33;100614.69;10484337;28;20115;-69
2024/03/08 18:28:41;;;;;;;20.58;15.93;;;;;;;6.95;99.39;100612.50;10536054;28;20441;-68
2024/03/08 18:33:44;;;;;;;20.48;14.30;;;;;;;6.88;98.90;100622.34;10535355;28;20028;-70
2024/03/08 18:38:45;;;;;;;24.70;17.20;;;;;;;6.88;98.90;100600.81;10517299;28;20441;-69
2024/03/08 18:43:45;;;;;;;20.92;15.77;;;;;;;6.83;98.74;100592.41;10516148;28;20040;-69
2024/03/08 18:48:46;;;;;;;23.80;16.50;;;;;;;6.74;99.67;100600.56;10534155;28;20039;-68
2024/03/08 18:53:46;;;;;;;25.48;19.00;;;;;;;6.69;99.90;100592.19;10515917;28;20064;-69
2024/03/08 18:58:46;;;;;;;26.00;17.92;;;;;;;6.59;100.00;100580.84;10535126;28;20137;-69
2024/03/08 19:03:48;;;;;;;21.00;16.10;;;;;;;6.56;100.00;100589.25;10533738;28;20131;-69
2024/03/08 19:08:54;;;;;;;31.52;20.00;;;;;;;6.56;100.00;100591.13;10533570;28;20039;-69
2024/03/08 19:13:55;;;;;;;20.55;14.70;;;;;;;6.46;100.00;100589.50;10534289;28;20110;-69
2024/03/08 19:18:55;;;;;;;28.13;19.23;;;;;;;6.33;100.00;100566.91;10534203;28;20127;-69
2024/03/08 19:23:56;;;;;;;31.77;22.00;;;;;;;6.30;100.00;100608.44;10516075;28;20044;-70
2024/03/08 19:28:56;;;;;;;33.70;21.98;;;;;;;6.31;100.00;100583.19;10534300;28;20122;-69
2024/03/08 19:33:57;;;;;;;29.90;19.42;;;;;;;6.08;100.00;100572.41;10538620;28;20123;-69
2024/03/08 19:38:58;;;;;;;28.08;17.90;;;;;;;6.07;100.00;100588.75;10490034;28;20177;-69
2024/03/08 19:43:58;;;;;;;33.45;19.75;;;;;;;6.02;100.00;100573.94;10507053;28;20032;-71
2024/03/08 19:48:58;;;;;;;35.47;21.88;;;;;;;6.01;100.00;100569.59;10541577;28;20424;-70
2024/03/08 19:54:00;;;;;;;25.58;17.60;;;;;;;5.92;100.00;100577.84;10481124;28;20051;-70
2024/03/08 19:59:01;;;;;;;35.85;24.73;;;;;;;5.78;100.00;100564.13;10541741;28;20087;-69
2024/03/08 20:04:01;;;;;;;31.63;22.05;;;;;;;5.76;100.00;100568.00;10481364;28;20557;-70
2024/03/08 20:09:02;;;;;;;23.92;16.33;;;;;;;5.66;100.00;100556.63;10499760;28;20037;-70
2024/03/08 20:14:03;;;;;;;30.50;21.85;;;;;;;5.71;100.00;100560.47;10499081;28;20063;-70
2024/03/08 20:19:03;;;;;;;31.88;22.63;;;;;;;5.54;100.00;100543.56;10498915;28;20417;-69
2024/03/08 20:24:04;;;;;;;24.98;19.67;;;;;;;5.51;100.00;100549.28;10497274;28;20036;-70
2024/03/08 20:29:08;;;;;;;31.17;21.63;;;;;;;5.45;100.00;100546.47;10497574;28;20032;-70
2024/03/08 20:34:09;;;;;;;34.70;23.45;;;;;;;5.44;100.00;100539.41;10498886;28;20051;-70
2024/03/08 20:39:10;;;;;;;44.33;24.65;;;;;;;5.41;100.00;100537.09;10497100;28;20082;-69
2024/03/08 20:44:10;;;;;;;36.03;25.20;;;;;;;5.34;100.00;100534.25;10496412;28;20079;-71
2024/03/08 20:49:12;;;;;;;28.65;19.80;;;;;;;5.30;100.00;100539.13;10496927;28;20635;-69
2024/03/08 20:54:15;;;;;;;36.90;22.73;;;;;;;5.26;100.00;100543.16;10497109;28;20037;-69
2024/03/08 20:59:15;;;;;;;40.20;22.25;;;;;;;5.17;100.00;100522.72;10497084;28;20477;-70
2024/03/08 21:04:16;;;;;;;33.35;24.55;;;;;;;5.16;100.00;100534.44;10537173;28;20134;-70
2024/03/08 21:09:18;;;;;;;27.67;18.23;;;;;;;5.04;100.00;100517.91;10537972;28;20051;-70
2024/03/08 21:14:19;;;;;;;37.53;27.05;;;;;;;5.06;100.00;100528.44;10520796;28;20055;-70
2024/03/08 21:19:19;;;;;;;31.38;23.33;;;;;;;4.97;100.00;100500.78;10520930;28;20036;-70
2024/03/08 21:24:19;;;;;;;32.78;20.77;;;;;;;4.99;100.00;100516.72;10519621;28;20032;-70
2024/03/08 21:29:20;;;;;;;36.67;24.17;;;;;;;4.96;100.00;100515.22;10537725;28;20111;-68
2024/03/08 21:34:21;;;;;;;27.48;19.55;;;;;;;4.89;100.00;100509.69;10536759;28;20040;-70
2024/03/08 21:39:27;;;;;;;42.42;24.48;;;;;;;4.82;100.00;100503.34;10502291;28;20047;-69
2024/03/08 21:44:29;;;;;;;;;;;;;;;4.81;100.00;100496.28;10537057;28;20047;-69
2024/03/08 21:49:30;;;;;;;34.63;21.10;;;;;;;4.79;100.00;100495.63;10518918;28;19916;-69
2024/03/08 21:54:30;;;;;;;36.50;23.00;;;;;;;4.73;100.00;100493.63;10536947;28;20031;-68
2024/03/08 21:59:34;;;;;;;28.23;19.65;;;;;;;4.69;100.00;100489.63;10536339;28;20534;-69
2024/03/08 22:04:34;;;;;;;36.78;21.83;;;;;;;4.72;100.00;100485.72;10536084;28;20484;-69
2024/03/08 22:09:35;;;;;;;31.70;21.38;;;;;;;4.66;100.00;100484.59;10536744;28;20086;-70
2024/03/08 22:14:36;;;;;;;36.35;25.20;;;;;;;4.67;100.00;100475.53;10535649;28;20535;-70
2024/03/08 22:19:37;;;;;;;32.17;21.60;;;;;;;4.64;100.00;100467.81;10517807;28;20050;-69
2024/03/08 22:24:38;;;;;;;24.13;17.08;;;;;;;4.58;100.00;100461.28;10517419;28;20036;-70
2024/03/08 22:29:40;;;;;;;36.30;24.67;;;;;;;4.56;100.00;100465.13;10535893;28;20036;-69
2024/03/08 22:34:42;;;;;;;34.67;24.65;;;;;;;4.48;100.00;100452.56;10537168;28;20121;-71
2024/03/08 22:39:42;;;;;;;29.30;20.70;;;;;;;4.53;100.00;100452.91;10519063;28;20480;-70
2024/03/08 22:44:43;;;;;;;46.08;25.02;;;;;;;4.55;100.00;100447.38;10537066;28;20123;-70